createdAt,value
2018-08-16T00:03:06.886Z,21.15
2018-08-16T00:08:00.016Z,21.05
2018-08-16T00:12:53.337Z,21.09
2018-08-16T00:17:46.484Z,21.19
2018-08-16T00:22:39.760Z,21.07
2018-08-16T00:27:32.809Z,21.14
2018-08-16T00:32:25.931Z,21.04
2018-08-16T00:37:19.114Z,21.13
2018-08-16T00:42:12.173Z,21.19
2018-08-16T00:47:05.343Z,21.12
2018-08-16T00:51:58.436Z,21.31
2018-08-16T00:56:51.567Z,21.36
2018-08-16T01:01:44.618Z,21.25
2018-08-16T01:06:37.597Z,21.03
2018-08-16T01:11:30.755Z,20.86
2018-08-16T01:16:23.735Z,20.95
2018-08-16T01:21:16.906Z,20.99
2018-08-16T01:26:09.981Z,21.30
2018-08-16T01:31:03.167Z,21.19
2018-08-16T01:35:56.339Z,21.13
2018-08-16T01:40:49.351Z,21.18
2018-08-16T01:45:42.461Z,21.28
2018-08-16T01:50:35.519Z,21.19
2018-08-16T01:55:28.440Z,21.12
2018-08-16T02:00:21.452Z,21.62
2018-08-16T02:05:14.539Z,21.47
2018-08-16T02:10:08.087Z,21.45
2018-08-16T02:15:01.211Z,21.42
2018-08-16T02:19:54.214Z,21.63
2018-08-16T02:24:47.212Z,22.08
2018-08-16T02:29:40.188Z,22.22
2018-08-16T02:34:33.306Z,22.86
2018-08-16T02:39:26.289Z,23.82
2018-08-16T02:44:19.306Z,24.32
2018-08-16T02:49:12.390Z,24.80
2018-08-16T02:54:05.522Z,24.84
2018-08-16T02:58:58.805Z,24.97
2018-08-16T03:03:51.754Z,24.99
2018-08-16T03:08:44.722Z,25.07
2018-08-16T03:13:37.910Z,24.97
2018-08-16T03:18:30.953Z,25.10
2018-08-16T03:23:24.088Z,24.99
2018-08-16T03:28:17.054Z,25.26
2018-08-16T03:33:10.317Z,24.92
2018-08-16T03:38:03.434Z,25.05
2018-08-16T03:42:57.491Z,25.07
2018-08-16T03:47:50.627Z,25.13
2018-08-16T03:52:43.588Z,25.12
2018-08-16T03:57:36.675Z,25.41
2018-08-16T04:02:29.838Z,25.59
2018-08-16T04:07:22.941Z,25.68
2018-08-16T04:12:15.854Z,25.86
2018-08-16T04:17:08.956Z,25.93
2018-08-16T04:22:02.230Z,26.02
2018-08-16T04:26:55.174Z,26.07
2018-08-16T04:31:48.140Z,26.09
2018-08-16T04:36:42.116Z,26.16
2018-08-16T04:41:35.283Z,26.17
2018-08-16T04:46:28.307Z,26.28
2018-08-16T04:51:21.257Z,26.27
2018-08-16T04:56:14.378Z,26.31
2018-08-16T05:01:07.617Z,26.39
2018-08-16T05:06:00.683Z,26.44
2018-08-16T05:10:53.618Z,26.52
2018-08-16T05:15:46.628Z,26.61
2018-08-16T05:20:39.788Z,26.68
2018-08-16T05:25:32.727Z,26.73
2018-08-16T05:30:25.828Z,26.74
2018-08-16T06:12:52.155Z,27.36
2018-08-16T06:17:45.378Z,27.34
2018-08-16T06:22:39.037Z,27.25
2018-08-16T06:27:31.992Z,27.45
2018-08-16T06:32:24.973Z,27.45
2018-08-16T06:37:18.080Z,27.54
2018-08-16T06:42:11.133Z,27.56
2018-08-16T06:47:04.244Z,27.68
2018-08-16T06:51:57.396Z,27.68
2018-08-16T06:56:50.417Z,27.81
2018-08-16T07:01:43.542Z,27.84
2018-08-16T07:06:36.752Z,27.88
2018-08-16T07:11:29.704Z,28.08
2018-08-16T07:16:23.110Z,28.09
2018-08-16T07:21:16.136Z,28.01
2018-08-16T07:26:09.168Z,28.02
2018-08-16T07:31:02.428Z,27.91
2018-08-16T07:35:56.554Z,28.19
2018-08-16T07:40:49.623Z,28.29
2018-08-16T07:45:43.079Z,28.26
2018-08-16T07:50:35.962Z,28.38
2018-08-16T07:55:29.090Z,28.33
2018-08-16T08:00:22.171Z,28.54
2018-08-16T08:05:15.126Z,28.65
2018-08-16T08:10:08.918Z,28.67
2018-08-16T08:15:01.947Z,28.88
2018-08-16T08:19:55.038Z,28.83
2018-08-16T08:24:48.026Z,29.01
2018-08-16T08:29:41.382Z,28.88
2018-08-16T08:34:34.320Z,28.94
2018-08-16T08:39:27.425Z,29.11
2018-08-16T08:44:23.423Z,29.15
2018-08-16T08:49:16.641Z,28.99
2018-08-16T08:54:20.716Z,28.77
2018-08-16T08:59:13.700Z,29.06
2018-08-16T09:04:06.831Z,29.18
2018-08-16T09:08:59.860Z,28.98
2018-08-16T09:14:05.205Z,29.05
2018-08-16T09:18:58.562Z,29.02
2018-08-16T09:23:51.518Z,29.18
2018-08-16T09:28:44.518Z,29.28
2018-08-16T09:33:48.518Z,29.37
2018-08-16T09:38:42.552Z,29.26
2018-08-16T09:43:47.179Z,29.44
2018-08-16T09:48:43.558Z,29.51
2018-08-16T09:53:36.632Z,29.61
2018-08-16T09:58:29.714Z,29.52
2018-08-16T10:03:22.662Z,29.55
2018-08-16T10:08:15.647Z,29.64
2018-08-16T10:13:08.629Z,29.92
2018-08-16T10:18:01.584Z,30.10
2018-08-16T10:22:54.527Z,29.87
2018-08-16T10:27:47.594Z,29.95
2018-08-16T10:32:40.515Z,29.88
2018-08-16T10:37:33.579Z,30.10
2018-08-16T10:42:39.730Z,30.11
2018-08-16T10:47:32.771Z,30.41
2018-08-16T10:52:25.843Z,30.18
2018-08-16T10:57:19.046Z,30.25
2018-08-16T11:02:12.098Z,30.40
2018-08-16T11:07:05.206Z,30.49
2018-08-16T11:11:58.183Z,30.37
2018-08-16T11:16:51.308Z,30.53
2018-08-16T11:21:44.348Z,31.00
2018-08-16T11:26:37.482Z,30.98
2018-08-16T11:31:30.450Z,30.95
2018-08-16T11:36:23.586Z,31.13
2018-08-16T11:41:16.745Z,31.35
2018-08-16T11:46:09.730Z,31.17
2018-08-16T11:51:02.657Z,31.39
2018-08-16T11:55:55.679Z,31.56
2018-08-16T12:00:49.252Z,31.22
2018-08-16T12:05:42.258Z,31.42
2018-08-16T12:10:35.336Z,31.57
2018-08-16T12:15:28.392Z,31.51
2018-08-16T12:20:21.738Z,31.44
2018-08-16T12:25:14.803Z,31.71
2018-08-16T12:30:09.069Z,31.48
2018-08-16T12:35:02.238Z,31.17
2018-08-16T12:39:55.220Z,31.28
2018-08-16T12:44:48.408Z,31.65
2018-08-16T12:49:41.638Z,31.53
2018-08-16T12:54:34.727Z,31.43
2018-08-16T12:59:28.041Z,31.40
2018-08-16T13:04:21.023Z,31.52
2018-08-16T13:09:14.512Z,31.30
2018-08-16T13:14:08.256Z,31.28
2018-08-16T13:19:01.482Z,31.63
2018-08-16T13:23:54.820Z,31.58
2018-08-16T13:28:48.296Z,31.47
2018-08-16T13:33:41.921Z,31.41
2018-08-16T13:38:35.197Z,31.30
2018-08-16T13:43:28.190Z,32.06
2018-08-16T13:48:21.968Z,32.75
2018-08-16T13:53:15.313Z,32.10
2018-08-16T13:58:09.527Z,32.03
2018-08-16T14:03:02.811Z,31.85
2018-08-16T14:07:57.618Z,31.76
2018-08-16T14:12:50.722Z,31.12
2018-08-16T14:17:43.835Z,31.12
2018-08-16T14:22:37.260Z,31.10
2018-08-16T14:27:30.302Z,31.34
2018-08-16T14:32:23.499Z,31.32
2018-08-16T14:37:16.651Z,31.33
2018-08-16T14:42:09.766Z,31.74
2018-08-16T14:47:05.306Z,31.70
2018-08-16T14:51:58.378Z,31.80
2018-08-16T14:56:51.487Z,31.76
2018-08-16T15:01:44.852Z,31.81
2018-08-16T15:06:39.190Z,31.24
2018-08-16T15:11:32.342Z,31.76
2018-08-16T15:16:27.697Z,31.75
2018-08-16T15:21:20.801Z,31.55
2018-08-16T15:26:27.144Z,31.74
2018-08-16T15:31:20.391Z,32.11
2018-08-16T15:36:18.999Z,32.22
2018-08-16T15:41:12.264Z,31.67
2018-08-16T15:46:15.265Z,31.14
2018-08-16T15:51:08.521Z,30.62
2018-08-16T15:56:01.671Z,30.27
2018-08-16T16:00:54.720Z,29.93
2018-08-16T16:05:49.134Z,29.78
2018-08-16T16:10:42.692Z,29.77
2018-08-16T16:15:36.077Z,29.69
2018-08-16T16:20:29.187Z,29.71
2018-08-16T16:25:22.313Z,29.66
2018-08-16T16:30:20.680Z,29.66
2018-08-16T16:35:13.992Z,29.48
2018-08-16T16:40:08.744Z,29.37
2018-08-16T16:45:02.126Z,29.31
2018-08-16T16:49:59.605Z,29.11
2018-08-16T16:54:53.019Z,28.67
2018-08-16T16:59:46.302Z,28.53
2018-08-16T17:04:39.444Z,28.49
2018-08-16T17:09:32.485Z,28.08
2018-08-16T17:14:25.650Z,28.03
2018-08-16T17:19:19.166Z,27.91
2018-08-16T17:24:12.251Z,27.54
2018-08-16T17:29:06.755Z,27.28
2018-08-16T17:33:59.945Z,26.85
2018-08-16T17:38:53.134Z,26.51
2018-08-16T17:43:46.237Z,26.27
2018-08-16T17:48:39.325Z,26.02
2018-08-16T17:53:32.646Z,25.75
2018-08-16T17:58:29.949Z,25.50
2018-08-16T18:03:22.996Z,25.46
2018-08-16T18:08:16.280Z,25.16
2018-08-16T18:13:09.721Z,25.10
2018-08-16T18:18:02.908Z,24.91
2018-08-16T18:22:56.070Z,24.72
2018-08-16T18:27:49.292Z,24.70
2018-08-16T18:32:43.191Z,24.50
2018-08-16T18:37:36.304Z,24.45
2018-08-16T18:42:29.589Z,24.36
2018-08-16T18:47:22.858Z,24.46
2018-08-16T18:52:15.920Z,24.38
2018-08-16T18:57:09.916Z,24.26
2018-08-16T19:02:03.925Z,24.30
2018-08-16T19:06:58.017Z,24.32
2018-08-16T19:11:51.090Z,24.53
2018-08-16T19:16:44.318Z,24.68
2018-08-16T19:21:37.393Z,24.70
2018-08-16T19:26:30.364Z,24.76
2018-08-16T19:31:23.728Z,24.75
2018-08-16T19:36:17.244Z,24.61
2018-08-16T19:41:10.388Z,24.47
2018-08-16T19:46:03.634Z,24.41
2018-08-16T19:50:56.699Z,24.35
2018-08-16T19:55:50.024Z,24.39
2018-08-16T20:00:43.107Z,24.25
2018-08-16T20:05:36.134Z,24.34
2018-08-16T20:10:29.199Z,24.30
2018-08-16T20:15:22.344Z,24.37
2018-08-16T20:20:15.332Z,24.41
2018-08-16T20:25:09.321Z,24.77
2018-08-16T20:30:02.486Z,25.03
2018-08-16T20:34:55.578Z,24.80
2018-08-16T20:39:48.523Z,24.60
2018-08-16T20:44:42.004Z,24.49
2018-08-16T20:49:35.054Z,24.77
2018-08-16T20:54:28.140Z,24.92
2018-08-16T20:59:21.154Z,25.36
2018-08-16T21:04:14.609Z,26.31
2018-08-16T21:09:08.921Z,26.70
2018-08-16T21:14:02.204Z,26.87
2018-08-16T21:18:55.815Z,26.86
2018-08-16T21:23:49.888Z,26.89
2018-08-16T21:28:43.878Z,27.02
2018-08-16T21:33:37.564Z,27.10
2018-08-16T21:38:31.271Z,26.98
2018-08-16T21:43:24.595Z,26.58
2018-08-16T21:48:18.126Z,26.02
2018-08-16T21:53:11.201Z,25.45
2018-08-16T21:58:04.146Z,25.26
2018-08-16T22:02:57.284Z,25.01
2018-08-16T22:08:08.842Z,24.59
2018-08-16T22:13:01.856Z,23.91
2018-08-16T22:17:54.893Z,23.21
2018-08-16T22:22:48.120Z,23.04
2018-08-16T22:27:41.053Z,22.87
2018-08-16T22:32:34.183Z,22.56
2018-08-16T22:37:27.174Z,22.46
2018-08-16T22:42:20.689Z,22.53
2018-08-16T22:47:13.690Z,22.47
2018-08-16T22:52:06.611Z,22.37
2018-08-16T22:56:59.810Z,22.28
2018-08-16T23:01:52.811Z,22.19
2018-08-16T23:06:45.807Z,22.17
2018-08-16T23:11:39.071Z,22.08
2018-08-16T23:16:32.122Z,21.99
2018-08-16T23:21:25.139Z,22.06
2018-08-16T23:26:18.193Z,22.33
2018-08-16T23:31:11.259Z,22.48
2018-08-16T23:36:04.394Z,22.60
2018-08-16T23:40:57.454Z,22.85
2018-08-16T23:45:50.569Z,22.93
2018-08-16T23:50:43.712Z,22.92
2018-08-16T23:55:38.073Z,22.86
